sensor_id;sensor_type;location;lat;lon;timestamp;temperature;humidity
41220;DHT22;26951;47.338;9.196;2023-03-30T00:00:52;9.60;62.20
41220;DHT22;26951;47.338;9.196;2023-03-30T00:03:37;9.60;63.00
41220;DHT22;26951;47.338;9.196;2023-03-30T00:06:25;9.60;63.10
41220;DHT22;26951;47.338;9.196;2023-03-30T00:09:09;9.60;63.40
41220;DHT22;26951;47.338;9.196;2023-03-30T00:11:53;9.50;63.00
41220;DHT22;26951;47.338;9.196;2023-03-30T00:14:38;9.50;62.90
41220;DHT22;26951;47.338;9.196;2023-03-30T00:17:24;9.60;62.90
41220;DHT22;26951;47.338;9.196;2023-03-30T00:20:10;9.60;62.90
41220;DHT22;26951;47.338;9.196;2023-03-30T00:22:55;9.60;62.80
41220;DHT22;26951;47.338;9.196;2023-03-30T00:25:41;9.60;62.70
41220;DHT22;26951;47.338;9.196;2023-03-30T00:28:25;9.60;62.40
41220;DHT22;26951;47.338;9.196;2023-03-30T00:31:10;9.50;62.70
41220;DHT22;26951;47.338;9.196;2023-03-30T00:33:54;9.50;62.60
41220;DHT22;26951;47.338;9.196;2023-03-30T00:36:38;9.50;61.80
41220;DHT22;26951;47.338;9.196;2023-03-30T00:39:22;9.50;61.90
41220;DHT22;26951;47.338;9.196;2023-03-30T00:42:16;9.50;62.10
41220;DHT22;26951;47.338;9.196;2023-03-30T00:45:22;9.50;62.60
41220;DHT22;26951;47.338;9.196;2023-03-30T00:48:11;9.40;61.70
41220;DHT22;26951;47.338;9.196;2023-03-30T00:53:49;9.40;61.10
41220;DHT22;26951;47.338;9.196;2023-03-30T00:56:33;9.30;61.20
41220;DHT22;26951;47.338;9.196;2023-03-30T00:59:18;9.30;60.70
41220;DHT22;26951;47.338;9.196;2023-03-30T01:02:02;9.20;60.50
41220;DHT22;26951;47.338;9.196;2023-03-30T01:04:48;9.10;60.10
41220;DHT22;26951;47.338;9.196;2023-03-30T01:07:35;9.00;59.90
41220;DHT22;26951;47.338;9.196;2023-03-30T01:10:20;8.90;59.90
41220;DHT22;26951;47.338;9.196;2023-03-30T01:13:05;8.90;60.00
41220;DHT22;26951;47.338;9.196;2023-03-30T01:15:53;8.70;62.20
41220;DHT22;26951;47.338;9.196;2023-03-30T01:19:16;8.70;61.50
41220;DHT22;26951;47.338;9.196;2023-03-30T01:32:01;8.40;61.40
41220;DHT22;26951;47.338;9.196;2023-03-30T01:38:14;8.30;63.10
41220;DHT22;26951;47.338;9.196;2023-03-30T01:41:32;8.30;62.60
41220;DHT22;26951;47.338;9.196;2023-03-30T01:44:34;8.30;62.60
41220;DHT22;26951;47.338;9.196;2023-03-30T01:47:29;8.30;63.00
41220;DHT22;26951;47.338;9.196;2023-03-30T01:50:27;8.30;63.60
41220;DHT22;26951;47.338;9.196;2023-03-30T01:53:24;8.30;65.20
41220;DHT22;26951;47.338;9.196;2023-03-30T01:56:18;8.30;65.40
41220;DHT22;26951;47.338;9.196;2023-03-30T01:59:15;8.30;65.90
41220;DHT22;26951;47.338;9.196;2023-03-30T02:02:03;8.40;66.10
41220;DHT22;26951;47.338;9.196;2023-03-30T02:04:51;8.40;66.60
41220;DHT22;26951;47.338;9.196;2023-03-30T02:07:37;8.40;67.30
41220;DHT22;26951;47.338;9.196;2023-03-30T02:10:26;8.40;66.70
41220;DHT22;26951;47.338;9.196;2023-03-30T02:13:12;8.50;66.50
41220;DHT22;26951;47.338;9.196;2023-03-30T02:16:06;8.50;67.00
41220;DHT22;26951;47.338;9.196;2023-03-30T02:18:51;8.50;67.70
41220;DHT22;26951;47.338;9.196;2023-03-30T02:21:37;8.60;67.80
41220;DHT22;26951;47.338;9.196;2023-03-30T02:24:24;8.60;67.30
41220;DHT22;26951;47.338;9.196;2023-03-30T02:27:10;8.70;67.00
41220;DHT22;26951;47.338;9.196;2023-03-30T02:29:54;8.80;65.10
41220;DHT22;26951;47.338;9.196;2023-03-30T02:32:41;8.90;64.50
41220;DHT22;26951;47.338;9.196;2023-03-30T02:35:55;9.10;64.00
41220;DHT22;26951;47.338;9.196;2023-03-30T02:39:07;9.20;64.50
41220;DHT22;26951;47.338;9.196;2023-03-30T02:42:05;9.30;62.90
41220;DHT22;26951;47.338;9.196;2023-03-30T02:45:17;9.40;62.10
41220;DHT22;26951;47.338;9.196;2023-03-30T02:48:23;9.50;61.70
41220;DHT22;26951;47.338;9.196;2023-03-30T02:54:51;9.70;61.90
41220;DHT22;26951;47.338;9.196;2023-03-30T02:57:54;9.80;61.90
41220;DHT22;26951;47.338;9.196;2023-03-30T03:00:50;9.80;63.30
41220;DHT22;26951;47.338;9.196;2023-03-30T03:03:39;9.80;63.60
41220;DHT22;26951;47.338;9.196;2023-03-30T03:06:25;9.80;67.00
41220;DHT22;26951;47.338;9.196;2023-03-30T03:09:09;9.80;65.60
41220;DHT22;26951;47.338;9.196;2023-03-30T03:11:54;9.80;66.70
41220;DHT22;26951;47.338;9.196;2023-03-30T03:14:38;9.70;67.50
41220;DHT22;26951;47.338;9.196;2023-03-30T03:17:23;9.70;68.00
41220;DHT22;26951;47.338;9.196;2023-03-30T03:20:07;9.80;67.90
41220;DHT22;26951;47.338;9.196;2023-03-30T03:22:53;9.80;66.50
41220;DHT22;26951;47.338;9.196;2023-03-30T03:25:37;9.70;66.30
41220;DHT22;26951;47.338;9.196;2023-03-30T03:28:21;9.70;67.00
41220;DHT22;26951;47.338;9.196;2023-03-30T03:31:05;9.60;67.60
41220;DHT22;26951;47.338;9.196;2023-03-30T03:33:50;9.60;67.80
41220;DHT22;26951;47.338;9.196;2023-03-30T03:36:34;9.70;68.70
41220;DHT22;26951;47.338;9.196;2023-03-30T03:39:18;9.70;68.30
41220;DHT22;26951;47.338;9.196;2023-03-30T03:42:04;9.60;67.90
41220;DHT22;26951;47.338;9.196;2023-03-30T03:44:48;9.60;69.30
41220;DHT22;26951;47.338;9.196;2023-03-30T03:47:33;9.60;70.00
41220;DHT22;26951;47.338;9.196;2023-03-30T03:50:18;9.60;70.00
41220;DHT22;26951;47.338;9.196;2023-03-30T03:53:02;9.50;72.10
41220;DHT22;26951;47.338;9.196;2023-03-30T03:55:46;9.50;73.10
41220;DHT22;26951;47.338;9.196;2023-03-30T03:58:30;9.50;73.20
41220;DHT22;26951;47.338;9.196;2023-03-30T04:01:15;9.50;72.70
41220;DHT22;26951;47.338;9.196;2023-03-30T04:03:59;9.50;73.30
41220;DHT22;26951;47.338;9.196;2023-03-30T04:06:44;9.50;72.70
41220;DHT22;26951;47.338;9.196;2023-03-30T04:09:28;9.50;72.50
41220;DHT22;26951;47.338;9.196;2023-03-30T04:12:12;9.60;72.70
41220;DHT22;26951;47.338;9.196;2023-03-30T04:14:56;9.60;71.80
41220;DHT22;26951;47.338;9.196;2023-03-30T04:17:40;9.50;72.00
41220;DHT22;26951;47.338;9.196;2023-03-30T04:20:26;9.60;71.90
41220;DHT22;26951;47.338;9.196;2023-03-30T04:23:10;9.50;72.20
41220;DHT22;26951;47.338;9.196;2023-03-30T04:26:05;9.50;72.50
41220;DHT22;26951;47.338;9.196;2023-03-30T04:28:50;9.50;72.70
41220;DHT22;26951;47.338;9.196;2023-03-30T04:31:36;9.40;74.10
41220;DHT22;26951;47.338;9.196;2023-03-30T04:34:21;9.40;74.50
41220;DHT22;26951;47.338;9.196;2023-03-30T04:37:05;9.40;74.30
41220;DHT22;26951;47.338;9.196;2023-03-30T04:39:50;9.40;74.30
41220;DHT22;26951;47.338;9.196;2023-03-30T04:42:37;9.50;73.90
41220;DHT22;26951;47.338;9.196;2023-03-30T04:45:21;9.50;74.20
41220;DHT22;26951;47.338;9.196;2023-03-30T04:48:05;9.50;74.30
41220;DHT22;26951;47.338;9.196;2023-03-30T04:50:50;9.50;73.60
41220;DHT22;26951;47.338;9.196;2023-03-30T04:53:34;9.50;73.40
41220;DHT22;26951;47.338;9.196;2023-03-30T04:56:19;9.50;73.10
41220;DHT22;26951;47.338;9.196;2023-03-30T04:59:03;9.50;72.60
41220;DHT22;26951;47.338;9.196;2023-03-30T05:01:47;9.50;72.20
41220;DHT22;26951;47.338;9.196;2023-03-30T05:04:32;9.50;72.60
41220;DHT22;26951;47.338;9.196;2023-03-30T05:07:16;9.50;72.00
41220;DHT22;26951;47.338;9.196;2023-03-30T05:10:00;9.50;72.00
41220;DHT22;26951;47.338;9.196;2023-03-30T05:12:45;9.40;73.10
41220;DHT22;26951;47.338;9.196;2023-03-30T05:15:29;9.40;73.30
41220;DHT22;26951;47.338;9.196;2023-03-30T05:18:13;9.40;73.10
41220;DHT22;26951;47.338;9.196;2023-03-30T05:20:58;9.40;72.20
41220;DHT22;26951;47.338;9.196;2023-03-30T05:23:42;9.40;72.70
41220;DHT22;26951;47.338;9.196;2023-03-30T05:26:27;9.40;72.70
41220;DHT22;26951;47.338;9.196;2023-03-30T05:29:11;9.40;72.10
41220;DHT22;26951;47.338;9.196;2023-03-30T05:31:55;9.40;72.80
41220;DHT22;26951;47.338;9.196;2023-03-30T05:34:39;9.40;72.70
41220;DHT22;26951;47.338;9.196;2023-03-30T05:37:23;9.40;73.30
41220;DHT22;26951;47.338;9.196;2023-03-30T05:40:08;9.30;73.70
41220;DHT22;26951;47.338;9.196;2023-03-30T05:42:52;9.40;72.80
41220;DHT22;26951;47.338;9.196;2023-03-30T05:45:36;9.40;72.30
41220;DHT22;26951;47.338;9.196;2023-03-30T05:48:20;9.50;73.00
41220;DHT22;26951;47.338;9.196;2023-03-30T05:51:04;9.50;72.60
41220;DHT22;26951;47.338;9.196;2023-03-30T05:53:48;9.60;72.50
41220;DHT22;26951;47.338;9.196;2023-03-30T05:56:32;9.60;72.60
41220;DHT22;26951;47.338;9.196;2023-03-30T05:59:17;9.60;72.50
41220;DHT22;26951;47.338;9.196;2023-03-30T06:02:01;9.60;73.50
41220;DHT22;26951;47.338;9.196;2023-03-30T06:04:45;9.60;73.40
41220;DHT22;26951;47.338;9.196;2023-03-30T06:07:29;9.60;73.10
41220;DHT22;26951;47.338;9.196;2023-03-30T06:10:13;9.60;73.10
41220;DHT22;26951;47.338;9.196;2023-03-30T06:12:57;9.60;73.70
41220;DHT22;26951;47.338;9.196;2023-03-30T06:15:44;9.60;72.90
41220;DHT22;26951;47.338;9.196;2023-03-30T06:18:28;9.60;73.90
41220;DHT22;26951;47.338;9.196;2023-03-30T06:21:12;9.70;73.10
41220;DHT22;26951;47.338;9.196;2023-03-30T06:23:56;9.70;72.90
41220;DHT22;26951;47.338;9.196;2023-03-30T06:26:40;9.80;73.50
41220;DHT22;26951;47.338;9.196;2023-03-30T06:29:24;9.80;73.50
41220;DHT22;26951;47.338;9.196;2023-03-30T06:32:09;9.90;73.80
41220;DHT22;26951;47.338;9.196;2023-03-30T06:34:53;10.00;72.90
41220;DHT22;26951;47.338;9.196;2023-03-30T06:37:37;10.00;73.30
41220;DHT22;26951;47.338;9.196;2023-03-30T06:40:21;10.00;73.60
41220;DHT22;26951;47.338;9.196;2023-03-30T06:43:06;10.10;73.80
41220;DHT22;26951;47.338;9.196;2023-03-30T06:45:52;10.10;73.60
41220;DHT22;26951;47.338;9.196;2023-03-30T06:48:37;10.20;73.80
41220;DHT22;26951;47.338;9.196;2023-03-30T06:51:21;10.30;74.30
41220;DHT22;26951;47.338;9.196;2023-03-30T06:54:05;10.30;73.80
41220;DHT22;26951;47.338;9.196;2023-03-30T06:56:50;10.40;73.50
41220;DHT22;26951;47.338;9.196;2023-03-30T06:59:35;10.40;70.70
41220;DHT22;26951;47.338;9.196;2023-03-30T07:02:20;10.50;65.60
41220;DHT22;26951;47.338;9.196;2023-03-30T07:05:05;10.60;65.70
41220;DHT22;26951;47.338;9.196;2023-03-30T07:07:50;10.70;66.70
41220;DHT22;26951;47.338;9.196;2023-03-30T07:10:35;10.70;67.60
41220;DHT22;26951;47.338;9.196;2023-03-30T07:13:19;10.80;66.30
41220;DHT22;26951;47.338;9.196;2023-03-30T07:16:04;10.80;65.90
41220;DHT22;26951;47.338;9.196;2023-03-30T07:18:49;10.90;64.50
41220;DHT22;26951;47.338;9.196;2023-03-30T07:21:33;11.00;66.10
41220;DHT22;26951;47.338;9.196;2023-03-30T07:24:17;11.00;66.80
41220;DHT22;26951;47.338;9.196;2023-03-30T07:27:01;11.10;67.10
41220;DHT22;26951;47.338;9.196;2023-03-30T07:29:45;11.10;66.20
41220;DHT22;26951;47.338;9.196;2023-03-30T07:32:29;11.10;67.90
41220;DHT22;26951;47.338;9.196;2023-03-30T07:35:14;11.20;69.20
41220;DHT22;26951;47.338;9.196;2023-03-30T07:37:59;11.20;69.00
41220;DHT22;26951;47.338;9.196;2023-03-30T07:40:44;11.20;68.80
41220;DHT22;26951;47.338;9.196;2023-03-30T07:43:28;11.30;67.90
41220;DHT22;26951;47.338;9.196;2023-03-30T07:46:12;11.30;68.50
41220;DHT22;26951;47.338;9.196;2023-03-30T07:48:57;11.30;68.00
41220;DHT22;26951;47.338;9.196;2023-03-30T07:51:41;11.30;67.30
41220;DHT22;26951;47.338;9.196;2023-03-30T07:54:25;11.30;67.80
41220;DHT22;26951;47.338;9.196;2023-03-30T07:57:10;11.40;68.40
41220;DHT22;26951;47.338;9.196;2023-03-30T07:59:55;11.30;65.60
41220;DHT22;26951;47.338;9.196;2023-03-30T08:02:39;11.50;60.40
41220;DHT22;26951;47.338;9.196;2023-03-30T08:05:24;11.70;58.70
41220;DHT22;26951;47.338;9.196;2023-03-30T08:08:08;11.90;58.20
41220;DHT22;26951;47.338;9.196;2023-03-30T08:10:53;12.10;53.80
41220;DHT22;26951;47.338;9.196;2023-03-30T08:13:38;12.30;53.40
41220;DHT22;26951;47.338;9.196;2023-03-30T08:16:22;12.40;54.00
41220;DHT22;26951;47.338;9.196;2023-03-30T08:19:06;12.50;55.30
41220;DHT22;26951;47.338;9.196;2023-03-30T08:21:51;12.70;55.10
41220;DHT22;26951;47.338;9.196;2023-03-30T08:24:35;12.80;52.30
41220;DHT22;26951;47.338;9.196;2023-03-30T08:27:19;12.90;51.20
41220;DHT22;26951;47.338;9.196;2023-03-30T08:30:03;13.00;53.00
41220;DHT22;26951;47.338;9.196;2023-03-30T08:32:48;13.10;49.30
41220;DHT22;26951;47.338;9.196;2023-03-30T08:35:32;13.20;48.80
41220;DHT22;26951;47.338;9.196;2023-03-30T08:38:16;13.40;48.40
41220;DHT22;26951;47.338;9.196;2023-03-30T08:47:11;13.30;47.50
41220;DHT22;26951;47.338;9.196;2023-03-30T08:50:31;13.40;48.70
41220;DHT22;26951;47.338;9.196;2023-03-30T08:53:16;13.40;46.60
41220;DHT22;26951;47.338;9.196;2023-03-30T08:56:04;13.50;47.20
41220;DHT22;26951;47.338;9.196;2023-03-30T09:02:02;13.60;47.30
41220;DHT22;26951;47.338;9.196;2023-03-30T09:05:22;13.60;45.80
41220;DHT22;26951;47.338;9.196;2023-03-30T09:08:08;13.70;46.70
41220;DHT22;26951;47.338;9.196;2023-03-30T09:11:01;13.70;45.00
41220;DHT22;26951;47.338;9.196;2023-03-30T09:13:46;13.70;46.80
41220;DHT22;26951;47.338;9.196;2023-03-30T09:19:24;13.80;46.30
41220;DHT22;26951;47.338;9.196;2023-03-30T09:22:12;13.90;44.90
41220;DHT22;26951;47.338;9.196;2023-03-30T09:24:57;14.10;47.00
41220;DHT22;26951;47.338;9.196;2023-03-30T09:30:41;14.50;44.60
41220;DHT22;26951;47.338;9.196;2023-03-30T09:33:39;14.70;43.20
41220;DHT22;26951;47.338;9.196;2023-03-30T09:39:27;15.00;43.70
41220;DHT22;26951;47.338;9.196;2023-03-30T09:45:19;15.10;40.90
41220;DHT22;26951;47.338;9.196;2023-03-30T09:48:05;15.10;41.00
41220;DHT22;26951;47.338;9.196;2023-03-30T09:50:51;15.20;39.30
41220;DHT22;26951;47.338;9.196;2023-03-30T09:53:39;15.10;39.60
41220;DHT22;26951;47.338;9.196;2023-03-30T09:56:26;15.10;40.50
41220;DHT22;26951;47.338;9.196;2023-03-30T09:59:33;15.10;40.80
41220;DHT22;26951;47.338;9.196;2023-03-30T10:02:19;15.00;41.30
41220;DHT22;26951;47.338;9.196;2023-03-30T10:05:04;15.00;40.40
41220;DHT22;26951;47.338;9.196;2023-03-30T10:07:54;14.90;40.90
41220;DHT22;26951;47.338;9.196;2023-03-30T10:10:39;14.80;41.50
41220;DHT22;26951;47.338;9.196;2023-03-30T10:13:32;14.80;40.30
41220;DHT22;26951;47.338;9.196;2023-03-30T10:16:25;14.60;40.20
41220;DHT22;26951;47.338;9.196;2023-03-30T10:19:17;14.20;43.20
41220;DHT22;26951;47.338;9.196;2023-03-30T10:22:02;14.00;44.10
41220;DHT22;26951;47.338;9.196;2023-03-30T10:24:52;13.90;45.90
41220;DHT22;26951;47.338;9.196;2023-03-30T10:27:39;13.70;47.40
41220;DHT22;26951;47.338;9.196;2023-03-30T10:30:25;13.60;48.90
41220;DHT22;26951;47.338;9.196;2023-03-30T10:33:10;13.30;49.40
41220;DHT22;26951;47.338;9.196;2023-03-30T10:35:56;13.00;50.50
41220;DHT22;26951;47.338;9.196;2023-03-30T10:38:44;12.60;52.10
41220;DHT22;26951;47.338;9.196;2023-03-30T10:41:29;12.40;53.90
41220;DHT22;26951;47.338;9.196;2023-03-30T10:44:30;12.30;54.70
41220;DHT22;26951;47.338;9.196;2023-03-30T10:47:51;12.20;57.30
41220;DHT22;26951;47.338;9.196;2023-03-30T10:57:01;11.80;60.50
41220;DHT22;26951;47.338;9.196;2023-03-30T11:06:05;11.50;64.10
41220;DHT22;26951;47.338;9.196;2023-03-30T11:08:52;11.40;64.40
41220;DHT22;26951;47.338;9.196;2023-03-30T11:12:04;11.30;64.20
41220;DHT22;26951;47.338;9.196;2023-03-30T11:15:01;11.20;65.60
41220;DHT22;26951;47.338;9.196;2023-03-30T11:18:04;11.10;67.30
41220;DHT22;26951;47.338;9.196;2023-03-30T11:24:09;10.70;71.30
41220;DHT22;26951;47.338;9.196;2023-03-30T11:33:18;10.60;73.90
41220;DHT22;26951;47.338;9.196;2023-03-30T11:36:17;10.50;73.60
41220;DHT22;26951;47.338;9.196;2023-03-30T11:39:11;10.50;75.20
41220;DHT22;26951;47.338;9.196;2023-03-30T11:53:50;11.10;75.40
41220;DHT22;26951;47.338;9.196;2023-03-30T11:56:41;11.10;74.90
41220;DHT22;26951;47.338;9.196;2023-03-30T11:59:35;11.30;73.50
41220;DHT22;26951;47.338;9.196;2023-03-30T12:02:44;11.30;72.20
41220;DHT22;26951;47.338;9.196;2023-03-30T12:05:42;11.40;72.20
41220;DHT22;26951;47.338;9.196;2023-03-30T12:11:46;11.50;73.60
41220;DHT22;26951;47.338;9.196;2023-03-30T12:14:43;11.70;74.20
41220;DHT22;26951;47.338;9.196;2023-03-30T12:17:53;11.70;70.60
41220;DHT22;26951;47.338;9.196;2023-03-30T12:23:41;11.90;72.30
41220;DHT22;26951;47.338;9.196;2023-03-30T12:26:29;12.00;71.60
41220;DHT22;26951;47.338;9.196;2023-03-30T12:29:16;12.10;68.70
41220;DHT22;26951;47.338;9.196;2023-03-30T12:34:45;12.30;68.50
41220;DHT22;26951;47.338;9.196;2023-03-30T12:37:34;12.40;67.50
41220;DHT22;26951;47.338;9.196;2023-03-30T12:40:20;12.50;65.90
41220;DHT22;26951;47.338;9.196;2023-03-30T12:43:30;12.60;64.40
41220;DHT22;26951;47.338;9.196;2023-03-30T12:46:30;12.60;63.60
41220;DHT22;26951;47.338;9.196;2023-03-30T12:49:59;12.60;64.20
41220;DHT22;26951;47.338;9.196;2023-03-30T12:56:36;12.70;63.40
41220;DHT22;26951;47.338;9.196;2023-03-30T13:05:53;12.60;62.80
41220;DHT22;26951;47.338;9.196;2023-03-30T13:08:40;12.50;61.50
41220;DHT22;26951;47.338;9.196;2023-03-30T13:11:24;12.50;61.30
41220;DHT22;26951;47.338;9.196;2023-03-30T13:14:43;12.50;62.20
41220;DHT22;26951;47.338;9.196;2023-03-30T13:17:57;12.40;62.40
41220;DHT22;26951;47.338;9.196;2023-03-30T13:23:34;12.00;61.70
41220;DHT22;26951;47.338;9.196;2023-03-30T13:26:23;11.80;62.70
41220;DHT22;26951;47.338;9.196;2023-03-30T13:29:10;11.50;62.60
41220;DHT22;26951;47.338;9.196;2023-03-30T13:35:25;11.10;63.10
41220;DHT22;26951;47.338;9.196;2023-03-30T13:41:34;10.70;65.70
41220;DHT22;26951;47.338;9.196;2023-03-30T13:44:36;10.60;64.30
41220;DHT22;26951;47.338;9.196;2023-03-30T13:50:28;10.30;64.80
41220;DHT22;26951;47.338;9.196;2023-03-30T13:53:16;10.20;65.40
41220;DHT22;26951;47.338;9.196;2023-03-30T13:56:05;10.20;66.00
41220;DHT22;26951;47.338;9.196;2023-03-30T13:59:17;10.10;65.60
41220;DHT22;26951;47.338;9.196;2023-03-30T14:02:04;10.00;65.60
41220;DHT22;26951;47.338;9.196;2023-03-30T14:04:49;9.90;68.50
41220;DHT22;26951;47.338;9.196;2023-03-30T14:07:40;9.80;68.90
41220;DHT22;26951;47.338;9.196;2023-03-30T14:10:26;9.80;69.00
41220;DHT22;26951;47.338;9.196;2023-03-30T14:13:10;9.80;70.10
41220;DHT22;26951;47.338;9.196;2023-03-30T14:15:54;9.70;70.20
41220;DHT22;26951;47.338;9.196;2023-03-30T14:18:38;9.70;71.30
41220;DHT22;26951;47.338;9.196;2023-03-30T14:21:23;9.90;72.80
41220;DHT22;26951;47.338;9.196;2023-03-30T14:24:16;9.90;74.10
41220;DHT22;26951;47.338;9.196;2023-03-30T14:27:06;9.90;75.40
41220;DHT22;26951;47.338;9.196;2023-03-30T14:29:51;9.90;75.60
41220;DHT22;26951;47.338;9.196;2023-03-30T14:32:35;10.00;75.00
41220;DHT22;26951;47.338;9.196;2023-03-30T14:35:19;10.00;72.90
41220;DHT22;26951;47.338;9.196;2023-03-30T14:38:04;9.90;73.60
41220;DHT22;26951;47.338;9.196;2023-03-30T14:40:49;10.00;72.10
41220;DHT22;26951;47.338;9.196;2023-03-30T14:43:34;10.00;73.10
41220;DHT22;26951;47.338;9.196;2023-03-30T14:46:24;10.10;71.70
41220;DHT22;26951;47.338;9.196;2023-03-30T14:49:29;10.10;72.50
41220;DHT22;26951;47.338;9.196;2023-03-30T14:52:20;10.10;72.40
41220;DHT22;26951;47.338;9.196;2023-03-30T14:55:06;10.10;71.10
41220;DHT22;26951;47.338;9.196;2023-03-30T14:57:52;10.10;71.50
41220;DHT22;26951;47.338;9.196;2023-03-30T15:00:38;10.10;71.30
41220;DHT22;26951;47.338;9.196;2023-03-30T15:03:27;10.10;71.20
41220;DHT22;26951;47.338;9.196;2023-03-30T15:06:15;10.10;72.90
41220;DHT22;26951;47.338;9.196;2023-03-30T15:09:07;10.20;74.30
41220;DHT22;26951;47.338;9.196;2023-03-30T15:11:56;10.40;74.60
41220;DHT22;26951;47.338;9.196;2023-03-30T15:14:41;10.70;68.60
41220;DHT22;26951;47.338;9.196;2023-03-30T15:17:26;10.80;66.60
41220;DHT22;26951;47.338;9.196;2023-03-30T15:20:13;11.00;66.40
41220;DHT22;26951;47.338;9.196;2023-03-30T15:22:58;11.10;67.20
41220;DHT22;26951;47.338;9.196;2023-03-30T15:25:43;11.20;66.40
41220;DHT22;26951;47.338;9.196;2023-03-30T15:28:43;11.30;62.60
41220;DHT22;26951;47.338;9.196;2023-03-30T15:31:28;11.30;62.80
41220;DHT22;26951;47.338;9.196;2023-03-30T15:34:16;11.40;64.20
41220;DHT22;26951;47.338;9.196;2023-03-30T15:37:01;11.50;63.50
41220;DHT22;26951;47.338;9.196;2023-03-30T15:39:47;11.60;61.80
41220;DHT22;26951;47.338;9.196;2023-03-30T15:42:32;11.60;60.10
41220;DHT22;26951;47.338;9.196;2023-03-30T15:45:16;11.70;60.40
41220;DHT22;26951;47.338;9.196;2023-03-30T15:48:01;11.80;60.70
41220;DHT22;26951;47.338;9.196;2023-03-30T15:50:48;11.80;60.00
41220;DHT22;26951;47.338;9.196;2023-03-30T15:53:45;11.90;61.10
41220;DHT22;26951;47.338;9.196;2023-03-30T15:56:37;11.90;58.50
41220;DHT22;26951;47.338;9.196;2023-03-30T15:59:25;11.90;59.70
41220;DHT22;26951;47.338;9.196;2023-03-30T16:02:20;11.90;58.40
41220;DHT22;26951;47.338;9.196;2023-03-30T16:05:07;11.90;58.30
41220;DHT22;26951;47.338;9.196;2023-03-30T16:07:58;11.90;58.30
41220;DHT22;26951;47.338;9.196;2023-03-30T16:10:42;12.00;59.40
41220;DHT22;26951;47.338;9.196;2023-03-30T16:13:26;12.00;57.70
41220;DHT22;26951;47.338;9.196;2023-03-30T16:16:10;12.00;56.40
41220;DHT22;26951;47.338;9.196;2023-03-30T16:18:56;12.10;56.90
41220;DHT22;26951;47.338;9.196;2023-03-30T16:21:41;12.10;55.90
41220;DHT22;26951;47.338;9.196;2023-03-30T16:24:25;12.20;57.10
41220;DHT22;26951;47.338;9.196;2023-03-30T16:27:11;12.20;55.90
41220;DHT22;26951;47.338;9.196;2023-03-30T16:29:56;12.30;56.60
41220;DHT22;26951;47.338;9.196;2023-03-30T16:32:40;12.20;55.10
41220;DHT22;26951;47.338;9.196;2023-03-30T16:35:24;12.20;55.30
41220;DHT22;26951;47.338;9.196;2023-03-30T16:38:15;12.30;56.40
41220;DHT22;26951;47.338;9.196;2023-03-30T16:41:00;12.30;55.70
41220;DHT22;26951;47.338;9.196;2023-03-30T16:47:26;12.20;55.20
41220;DHT22;26951;47.338;9.196;2023-03-30T16:53:03;12.10;54.30
41220;DHT22;26951;47.338;9.196;2023-03-30T16:55:47;12.00;53.90
41220;DHT22;26951;47.338;9.196;2023-03-30T16:58:32;11.90;53.50
41220;DHT22;26951;47.338;9.196;2023-03-30T17:01:16;11.70;53.40
41220;DHT22;26951;47.338;9.196;2023-03-30T17:04:01;11.60;53.00
41220;DHT22;26951;47.338;9.196;2023-03-30T17:06:49;11.60;53.60
41220;DHT22;26951;47.338;9.196;2023-03-30T17:09:34;11.40;53.40
41220;DHT22;26951;47.338;9.196;2023-03-30T17:12:18;11.30;53.40
41220;DHT22;26951;47.338;9.196;2023-03-30T17:15:02;11.20;53.30
41220;DHT22;26951;47.338;9.196;2023-03-30T17:17:47;11.10;52.20
41220;DHT22;26951;47.338;9.196;2023-03-30T17:20:36;11.10;53.60
41220;DHT22;26951;47.338;9.196;2023-03-30T17:23:29;10.90;53.60
41220;DHT22;26951;47.338;9.196;2023-03-30T17:26:15;10.80;53.50
41220;DHT22;26951;47.338;9.196;2023-03-30T17:28:59;10.70;55.00
41220;DHT22;26951;47.338;9.196;2023-03-30T17:31:44;10.50;55.10
41220;DHT22;26951;47.338;9.196;2023-03-30T17:34:28;10.50;55.10
41220;DHT22;26951;47.338;9.196;2023-03-30T17:37:12;10.30;54.50
41220;DHT22;26951;47.338;9.196;2023-03-30T17:39:56;10.20;54.70
41220;DHT22;26951;47.338;9.196;2023-03-30T17:42:41;10.10;54.60
41220;DHT22;26951;47.338;9.196;2023-03-30T17:45:26;10.00;55.10
41220;DHT22;26951;47.338;9.196;2023-03-30T17:48:17;9.80;56.10
41220;DHT22;26951;47.338;9.196;2023-03-30T17:51:01;9.60;56.50
41220;DHT22;26951;47.338;9.196;2023-03-30T17:53:45;9.50;56.80
41220;DHT22;26951;47.338;9.196;2023-03-30T17:56:29;9.40;56.50
41220;DHT22;26951;47.338;9.196;2023-03-30T17:59:13;9.30;56.50
41220;DHT22;26951;47.338;9.196;2023-03-30T18:01:57;9.20;55.70
41220;DHT22;26951;47.338;9.196;2023-03-30T18:04:41;9.00;55.10
41220;DHT22;26951;47.338;9.196;2023-03-30T18:07:26;8.90;56.70
41220;DHT22;26951;47.338;9.196;2023-03-30T18:10:14;8.80;56.80
41220;DHT22;26951;47.338;9.196;2023-03-30T18:12:59;8.60;55.70
41220;DHT22;26951;47.338;9.196;2023-03-30T18:15:44;8.50;55.40
41220;DHT22;26951;47.338;9.196;2023-03-30T18:18:32;8.30;56.40
41220;DHT22;26951;47.338;9.196;2023-03-30T18:21:17;8.10;57.90
41220;DHT22;26951;47.338;9.196;2023-03-30T18:24:01;8.10;58.40
41220;DHT22;26951;47.338;9.196;2023-03-30T18:26:45;8.00;58.10
41220;DHT22;26951;47.338;9.196;2023-03-30T18:29:29;7.80;58.10
41220;DHT22;26951;47.338;9.196;2023-03-30T18:32:14;7.70;59.40
41220;DHT22;26951;47.338;9.196;2023-03-30T18:34:58;7.70;60.30
41220;DHT22;26951;47.338;9.196;2023-03-30T18:37:42;7.60;62.40
41220;DHT22;26951;47.338;9.196;2023-03-30T18:40:38;7.60;63.20
41220;DHT22;26951;47.338;9.196;2023-03-30T18:43:24;7.50;63.60
41220;DHT22;26951;47.338;9.196;2023-03-30T18:46:12;7.50;63.60
41220;DHT22;26951;47.338;9.196;2023-03-30T18:48:56;7.50;63.90
41220;DHT22;26951;47.338;9.196;2023-03-30T18:51:41;7.40;64.00
41220;DHT22;26951;47.338;9.196;2023-03-30T18:54:24;7.40;64.20
41220;DHT22;26951;47.338;9.196;2023-03-30T18:57:09;7.40;63.70
41220;DHT22;26951;47.338;9.196;2023-03-30T18:59:53;7.30;62.20
41220;DHT22;26951;47.338;9.196;2023-03-30T19:02:38;7.20;63.10
41220;DHT22;26951;47.338;9.196;2023-03-30T19:05:24;7.20;63.70
41220;DHT22;26951;47.338;9.196;2023-03-30T19:08:13;7.10;64.60
41220;DHT22;26951;47.338;9.196;2023-03-30T19:10:58;7.10;65.70
41220;DHT22;26951;47.338;9.196;2023-03-30T19:13:42;7.10;66.70
41220;DHT22;26951;47.338;9.196;2023-03-30T19:16:26;7.10;67.40
41220;DHT22;26951;47.338;9.196;2023-03-30T19:19:10;7.10;67.10
41220;DHT22;26951;47.338;9.196;2023-03-30T19:21:55;7.00;67.30
41220;DHT22;26951;47.338;9.196;2023-03-30T19:24:41;7.10;68.80
41220;DHT22;26951;47.338;9.196;2023-03-30T19:27:25;7.10;69.70
41220;DHT22;26951;47.338;9.196;2023-03-30T19:30:12;7.10;69.10
41220;DHT22;26951;47.338;9.196;2023-03-30T19:32:59;7.10;67.80
41220;DHT22;26951;47.338;9.196;2023-03-30T19:35:44;7.00;68.50
41220;DHT22;26951;47.338;9.196;2023-03-30T19:38:28;7.00;67.80
41220;DHT22;26951;47.338;9.196;2023-03-30T19:41:12;7.00;67.00